sensor_id;sensor_type;location;lat;lon;timestamp;P1;durP1;ratioP1;P2;durP2;ratioP2
11348;SDS011;5729;43.570;27.826;2023-06-22T00:00:29;10.05;;;7.85;;
11348;SDS011;5729;43.570;27.826;2023-06-22T00:02:54;11.77;;;8.40;;
11348;SDS011;5729;43.570;27.826;2023-06-22T00:05:20;9.45;;;8.35;;
11348;SDS011;5729;43.570;27.826;2023-06-22T00:07:45;12.23;;;8.43;;
11348;SDS011;5729;43.570;27.826;2023-06-22T00:10:11;17.55;;;8.98;;
11348;SDS011;5729;43.570;27.826;2023-06-22T00:12:37;12.45;;;7.95;;
11348;SDS011;5729;43.570;27.826;2023-06-22T00:15:03;13.93;;;8.40;;
11348;SDS011;5729;43.570;27.826;2023-06-22T00:17:28;9.95;;;7.63;;
11348;SDS011;5729;43.570;27.826;2023-06-22T00:19:54;9.90;;;8.52;;
11348;SDS011;5729;43.570;27.826;2023-06-22T00:22:20;11.88;;;8.48;;
11348;SDS011;5729;43.570;27.826;2023-06-22T00:24:54;9.65;;;7.95;;
11348;SDS011;5729;43.570;27.826;2023-06-22T00:27:20;14.00;;;8.30;;
11348;SDS011;5729;43.570;27.826;2023-06-22T00:29:46;12.05;;;9.10;;
11348;SDS011;5729;43.570;27.826;2023-06-22T00:32:11;8.85;;;7.95;;
11348;SDS011;5729;43.570;27.826;2023-06-22T00:34:36;9.77;;;8.55;;
11348;SDS011;5729;43.570;27.826;2023-06-22T00:37:02;13.82;;;8.02;;
11348;SDS011;5729;43.570;27.826;2023-06-22T00:39:27;10.07;;;8.10;;
11348;SDS011;5729;43.570;27.826;2023-06-22T00:41:53;10.63;;;8.48;;
11348;SDS011;5729;43.570;27.826;2023-06-22T00:44:18;14.48;;;8.60;;
11348;SDS011;5729;43.570;27.826;2023-06-22T00:46:44;9.63;;;8.57;;
11348;SDS011;5729;43.570;27.826;2023-06-22T00:49:09;11.20;;;8.48;;
11348;SDS011;5729;43.570;27.826;2023-06-22T00:51:35;10.98;;;7.95;;
11348;SDS011;5729;43.570;27.826;2023-06-22T00:54:03;11.23;;;9.23;;
11348;SDS011;5729;43.570;27.826;2023-06-22T00:56:30;8.90;;;8.00;;
11348;SDS011;5729;43.570;27.826;2023-06-22T00:58:57;12.77;;;8.00;;
11348;SDS011;5729;43.570;27.826;2023-06-22T01:01:24;13.00;;;9.25;;
11348;SDS011;5729;43.570;27.826;2023-06-22T01:03:50;12.25;;;8.85;;
11348;SDS011;5729;43.570;27.826;2023-06-22T01:06:18;9.95;;;8.43;;
11348;SDS011;5729;43.570;27.826;2023-06-22T01:08:51;11.70;;;9.35;;
11348;SDS011;5729;43.570;27.826;2023-06-22T01:11:27;12.95;;;8.77;;
11348;SDS011;5729;43.570;27.826;2023-06-22T01:16:27;11.23;;;8.70;;
11348;SDS011;5729;43.570;27.826;2023-06-22T01:19:09;16.23;;;9.48;;
11348;SDS011;5729;43.570;27.826;2023-06-22T01:21:53;11.55;;;8.55;;
11348;SDS011;5729;43.570;27.826;2023-06-22T01:29:36;14.45;;;9.20;;
11348;SDS011;5729;43.570;27.826;2023-06-22T01:32:04;13.68;;;8.93;;
11348;SDS011;5729;43.570;27.826;2023-06-22T01:34:31;12.60;;;9.05;;
11348;SDS011;5729;43.570;27.826;2023-06-22T01:36:57;12.05;;;8.77;;
11348;SDS011;5729;43.570;27.826;2023-06-22T01:39:25;10.80;;;8.85;;
11348;SDS011;5729;43.570;27.826;2023-06-22T01:41:51;9.32;;;8.38;;
11348;SDS011;5729;43.570;27.826;2023-06-22T01:44:18;12.38;;;9.15;;
11348;SDS011;5729;43.570;27.826;2023-06-22T01:46:44;11.45;;;8.57;;
11348;SDS011;5729;43.570;27.826;2023-06-22T01:49:10;11.52;;;9.40;;
11348;SDS011;5729;43.570;27.826;2023-06-22T01:51:36;12.00;;;9.07;;
11348;SDS011;5729;43.570;27.826;2023-06-22T01:54:01;14.30;;;9.27;;
11348;SDS011;5729;43.570;27.826;2023-06-22T01:56:28;14.00;;;8.07;;
11348;SDS011;5729;43.570;27.826;2023-06-22T01:59:09;10.90;;;8.68;;
11348;SDS011;5729;43.570;27.826;2023-06-22T02:01:58;15.05;;;9.35;;
11348;SDS011;5729;43.570;27.826;2023-06-22T02:04:46;12.93;;;9.05;;
11348;SDS011;5729;43.570;27.826;2023-06-22T02:07:17;14.90;;;9.38;;
11348;SDS011;5729;43.570;27.826;2023-06-22T02:09:44;15.07;;;10.43;;
11348;SDS011;5729;43.570;27.826;2023-06-22T02:12:12;10.88;;;9.75;;
11348;SDS011;5729;43.570;27.826;2023-06-22T02:14:42;11.73;;;9.27;;
11348;SDS011;5729;43.570;27.826;2023-06-22T02:17:08;12.68;;;9.23;;
11348;SDS011;5729;43.570;27.826;2023-06-22T02:19:37;9.43;;;8.52;;
11348;SDS011;5729;43.570;27.826;2023-06-22T02:22:04;15.07;;;9.10;;
11348;SDS011;5729;43.570;27.826;2023-06-22T02:24:30;10.88;;;8.40;;
11348;SDS011;5729;43.570;27.826;2023-06-22T02:27:00;15.02;;;9.02;;
11348;SDS011;5729;43.570;27.826;2023-06-22T02:29:26;13.90;;;8.73;;
11348;SDS011;5729;43.570;27.826;2023-06-22T02:31:52;15.90;;;8.90;;
11348;SDS011;5729;43.570;27.826;2023-06-22T02:34:18;12.45;;;9.00;;
11348;SDS011;5729;43.570;27.826;2023-06-22T02:36:47;15.18;;;9.60;;
11348;SDS011;5729;43.570;27.826;2023-06-22T02:39:20;14.35;;;8.98;;
11348;SDS011;5729;43.570;27.826;2023-06-22T02:41:48;22.77;;;8.82;;
11348;SDS011;5729;43.570;27.826;2023-06-22T02:44:17;12.68;;;9.48;;
11348;SDS011;5729;43.570;27.826;2023-06-22T02:46:43;13.57;;;8.95;;
11348;SDS011;5729;43.570;27.826;2023-06-22T02:49:09;12.68;;;9.15;;
11348;SDS011;5729;43.570;27.826;2023-06-22T02:51:38;16.23;;;9.18;;
11348;SDS011;5729;43.570;27.826;2023-06-22T02:54:04;10.25;;;8.90;;
11348;SDS011;5729;43.570;27.826;2023-06-22T02:56:30;13.52;;;9.70;;
11348;SDS011;5729;43.570;27.826;2023-06-22T02:58:56;14.43;;;9.80;;
11348;SDS011;5729;43.570;27.826;2023-06-22T03:01:29;11.73;;;9.23;;
11348;SDS011;5729;43.570;27.826;2023-06-22T03:03:58;13.57;;;9.80;;
11348;SDS011;5729;43.570;27.826;2023-06-22T03:06:24;11.32;;;9.50;;
11348;SDS011;5729;43.570;27.826;2023-06-22T03:08:59;15.13;;;9.93;;
11348;SDS011;5729;43.570;27.826;2023-06-22T03:11:26;13.23;;;9.25;;
11348;SDS011;5729;43.570;27.826;2023-06-22T03:13:52;12.40;;;9.57;;
11348;SDS011;5729;43.570;27.826;2023-06-22T03:16:18;13.23;;;9.63;;
11348;SDS011;5729;43.570;27.826;2023-06-22T03:18:44;14.23;;;10.07;;
11348;SDS011;5729;43.570;27.826;2023-06-22T03:21:09;13.15;;;9.57;;
11348;SDS011;5729;43.570;27.826;2023-06-22T03:23:35;12.80;;;9.98;;
11348;SDS011;5729;43.570;27.826;2023-06-22T03:26:01;10.05;;;8.85;;
11348;SDS011;5729;43.570;27.826;2023-06-22T03:28:27;11.45;;;9.70;;
11348;SDS011;5729;43.570;27.826;2023-06-22T03:30:52;13.30;;;9.63;;
11348;SDS011;5729;43.570;27.826;2023-06-22T03:33:18;12.48;;;9.85;;
11348;SDS011;5729;43.570;27.826;2023-06-22T03:35:43;15.10;;;9.98;;
11348;SDS011;5729;43.570;27.826;2023-06-22T03:38:09;10.38;;;9.27;;
11348;SDS011;5729;43.570;27.826;2023-06-22T03:40:34;12.98;;;9.82;;
11348;SDS011;5729;43.570;27.826;2023-06-22T03:42:59;13.70;;;9.65;;
11348;SDS011;5729;43.570;27.826;2023-06-22T03:45:25;16.38;;;9.77;;
11348;SDS011;5729;43.570;27.826;2023-06-22T03:47:50;16.95;;;9.75;;
11348;SDS011;5729;43.570;27.826;2023-06-22T03:50:16;12.98;;;9.60;;
11348;SDS011;5729;43.570;27.826;2023-06-22T03:52:41;12.75;;;9.85;;
11348;SDS011;5729;43.570;27.826;2023-06-22T03:55:07;13.98;;;9.82;;
11348;SDS011;5729;43.570;27.826;2023-06-22T03:57:33;13.10;;;9.85;;
11348;SDS011;5729;43.570;27.826;2023-06-22T03:59:59;15.30;;;10.20;;
11348;SDS011;5729;43.570;27.826;2023-06-22T04:02:26;11.45;;;8.88;;
11348;SDS011;5729;43.570;27.826;2023-06-22T04:04:51;13.07;;;9.68;;
11348;SDS011;5729;43.570;27.826;2023-06-22T04:07:17;11.50;;;9.80;;
11348;SDS011;5729;43.570;27.826;2023-06-22T04:09:43;21.10;;;10.95;;
11348;SDS011;5729;43.570;27.826;2023-06-22T04:12:08;12.98;;;10.25;;
11348;SDS011;5729;43.570;27.826;2023-06-22T04:14:34;13.00;;;10.00;;
11348;SDS011;5729;43.570;27.826;2023-06-22T04:17:00;18.13;;;10.65;;
11348;SDS011;5729;43.570;27.826;2023-06-22T04:19:25;18.98;;;10.38;;
11348;SDS011;5729;43.570;27.826;2023-06-22T04:21:50;16.58;;;10.02;;
11348;SDS011;5729;43.570;27.826;2023-06-22T04:24:16;13.07;;;9.75;;
11348;SDS011;5729;43.570;27.826;2023-06-22T04:26:41;12.80;;;9.40;;
11348;SDS011;5729;43.570;27.826;2023-06-22T04:29:10;16.58;;;10.27;;
11348;SDS011;5729;43.570;27.826;2023-06-22T04:31:35;16.05;;;11.27;;
11348;SDS011;5729;43.570;27.826;2023-06-22T04:34:02;18.40;;;11.07;;
11348;SDS011;5729;43.570;27.826;2023-06-22T04:39:07;16.13;;;10.73;;
11348;SDS011;5729;43.570;27.826;2023-06-22T04:41:35;13.88;;;10.07;;
11348;SDS011;5729;43.570;27.826;2023-06-22T04:44:10;16.42;;;11.20;;
11348;SDS011;5729;43.570;27.826;2023-06-22T04:46:36;14.55;;;11.05;;
11348;SDS011;5729;43.570;27.826;2023-06-22T04:51:35;15.07;;;11.02;;
11348;SDS011;5729;43.570;27.826;2023-06-22T04:54:04;20.02;;;11.32;;
11348;SDS011;5729;43.570;27.826;2023-06-22T04:56:31;18.92;;;11.48;;
11348;SDS011;5729;43.570;27.826;2023-06-22T04:58:56;16.77;;;10.77;;
11348;SDS011;5729;43.570;27.826;2023-06-22T05:01:22;15.48;;;10.02;;
11348;SDS011;5729;43.570;27.826;2023-06-22T05:03:49;21.75;;;11.10;;
11348;SDS011;5729;43.570;27.826;2023-06-22T05:06:15;18.25;;;10.82;;
11348;SDS011;5729;43.570;27.826;2023-06-22T05:08:40;14.90;;;10.23;;
11348;SDS011;5729;43.570;27.826;2023-06-22T05:11:06;21.88;;;11.32;;
11348;SDS011;5729;43.570;27.826;2023-06-22T05:13:31;20.38;;;10.52;;
11348;SDS011;5729;43.570;27.826;2023-06-22T05:15:57;16.52;;;9.82;;
11348;SDS011;5729;43.570;27.826;2023-06-22T05:18:29;15.98;;;9.68;;
11348;SDS011;5729;43.570;27.826;2023-06-22T05:20:56;13.15;;;9.18;;
11348;SDS011;5729;43.570;27.826;2023-06-22T05:23:23;12.32;;;9.10;;
11348;SDS011;5729;43.570;27.826;2023-06-22T05:25:48;10.93;;;8.15;;
11348;SDS011;5729;43.570;27.826;2023-06-22T05:28:14;9.63;;;8.48;;
11348;SDS011;5729;43.570;27.826;2023-06-22T05:30:39;11.43;;;8.45;;
11348;SDS011;5729;43.570;27.826;2023-06-22T05:33:05;10.85;;;8.60;;
11348;SDS011;5729;43.570;27.826;2023-06-22T05:35:30;11.02;;;8.27;;
11348;SDS011;5729;43.570;27.826;2023-06-22T05:37:56;11.68;;;8.25;;
11348;SDS011;5729;43.570;27.826;2023-06-22T05:40:21;13.75;;;8.27;;
11348;SDS011;5729;43.570;27.826;2023-06-22T05:42:47;14.43;;;8.80;;
11348;SDS011;5729;43.570;27.826;2023-06-22T05:45:12;13.63;;;8.40;;
11348;SDS011;5729;43.570;27.826;2023-06-22T05:47:38;13.10;;;8.35;;
11348;SDS011;5729;43.570;27.826;2023-06-22T05:50:04;8.00;;;7.05;;
11348;SDS011;5729;43.570;27.826;2023-06-22T05:52:33;8.00;;;7.10;;
11348;SDS011;5729;43.570;27.826;2023-06-22T05:54:59;14.68;;;7.25;;
11348;SDS011;5729;43.570;27.826;2023-06-22T05:57:24;7.55;;;6.85;;
11348;SDS011;5729;43.570;27.826;2023-06-22T05:59:50;12.18;;;7.53;;
11348;SDS011;5729;43.570;27.826;2023-06-22T06:02:16;10.75;;;6.40;;
11348;SDS011;5729;43.570;27.826;2023-06-22T06:04:42;12.48;;;6.85;;
11348;SDS011;5729;43.570;27.826;2023-06-22T06:07:07;12.02;;;7.20;;
11348;SDS011;5729;43.570;27.826;2023-06-22T06:09:33;7.60;;;6.78;;
11348;SDS011;5729;43.570;27.826;2023-06-22T06:11:58;8.07;;;6.18;;
11348;SDS011;5729;43.570;27.826;2023-06-22T06:14:23;8.80;;;6.75;;
11348;SDS011;5729;43.570;27.826;2023-06-22T06:16:49;8.63;;;6.03;;
11348;SDS011;5729;43.570;27.826;2023-06-22T06:19:14;7.82;;;6.00;;
11348;SDS011;5729;43.570;27.826;2023-06-22T12:16:49;4.25;;;3.83;;
11348;SDS011;5729;43.570;27.826;2023-06-22T12:19:14;4.97;;;3.75;;
11348;SDS011;5729;43.570;27.826;2023-06-22T12:21:40;4.22;;;3.55;;
11348;SDS011;5729;43.570;27.826;2023-06-22T12:24:05;5.70;;;3.65;;
11348;SDS011;5729;43.570;27.826;2023-06-22T12:26:31;4.68;;;4.00;;
11348;SDS011;5729;43.570;27.826;2023-06-22T12:28:56;4.03;;;3.63;;
11348;SDS011;5729;43.570;27.826;2023-06-22T12:31:22;8.48;;;3.63;;
11348;SDS011;5729;43.570;27.826;2023-06-22T12:33:47;5.68;;;4.53;;
11348;SDS011;5729;43.570;27.826;2023-06-22T12:36:13;5.97;;;4.97;;
11348;SDS011;5729;43.570;27.826;2023-06-22T12:38:38;6.75;;;5.30;;
11348;SDS011;5729;43.570;27.826;2023-06-22T12:41:04;8.57;;;5.30;;
11348;SDS011;5729;43.570;27.826;2023-06-22T12:43:29;6.30;;;4.97;;
11348;SDS011;5729;43.570;27.826;2023-06-22T12:45:54;19.80;;;5.40;;
11348;SDS011;5729;43.570;27.826;2023-06-22T12:48:21;6.85;;;5.60;;
11348;SDS011;5729;43.570;27.826;2023-06-22T12:50:47;6.97;;;5.35;;
11348;SDS011;5729;43.570;27.826;2023-06-22T12:53:13;9.93;;;5.70;;
11348;SDS011;5729;43.570;27.826;2023-06-22T12:55:38;7.22;;;5.30;;
11348;SDS011;5729;43.570;27.826;2023-06-22T12:58:04;10.48;;;5.47;;
11348;SDS011;5729;43.570;27.826;2023-06-22T13:00:29;9.25;;;5.28;;
11348;SDS011;5729;43.570;27.826;2023-06-22T13:02:55;7.93;;;4.95;;
11348;SDS011;5729;43.570;27.826;2023-06-22T13:05:20;8.10;;;5.60;;
11348;SDS011;5729;43.570;27.826;2023-06-22T13:07:46;8.27;;;5.22;;
11348;SDS011;5729;43.570;27.826;2023-06-22T13:10:11;8.07;;;5.05;;
11348;SDS011;5729;43.570;27.826;2023-06-22T13:12:36;5.30;;;4.82;;
11348;SDS011;5729;43.570;27.826;2023-06-22T13:15:02;8.15;;;5.70;;
11348;SDS011;5729;43.570;27.826;2023-06-22T13:17:28;6.63;;;5.93;;
11348;SDS011;5729;43.570;27.826;2023-06-22T13:19:54;6.55;;;5.40;;
11348;SDS011;5729;43.570;27.826;2023-06-22T13:22:26;8.57;;;5.50;;
11348;SDS011;5729;43.570;27.826;2023-06-22T13:24:54;6.75;;;5.20;;
11348;SDS011;5729;43.570;27.826;2023-06-22T13:27:20;7.85;;;5.53;;
11348;SDS011;5729;43.570;27.826;2023-06-22T13:29:45;6.25;;;5.45;;
11348;SDS011;5729;43.570;27.826;2023-06-22T13:32:10;6.50;;;4.88;;
11348;SDS011;5729;43.570;27.826;2023-06-22T13:34:36;8.93;;;5.68;;
11348;SDS011;5729;43.570;27.826;2023-06-22T13:37:01;6.22;;;5.63;;
11348;SDS011;5729;43.570;27.826;2023-06-22T13:39:27;9.10;;;5.57;;
11348;SDS011;5729;43.570;27.826;2023-06-22T13:41:53;6.88;;;5.00;;
11348;SDS011;5729;43.570;27.826;2023-06-22T13:44:18;7.43;;;5.75;;
11348;SDS011;5729;43.570;27.826;2023-06-22T13:46:43;6.07;;;4.65;;
11348;SDS011;5729;43.570;27.826;2023-06-22T13:49:09;6.40;;;5.30;;
11348;SDS011;5729;43.570;27.826;2023-06-22T13:51:35;6.13;;;5.53;;
11348;SDS011;5729;43.570;27.826;2023-06-22T13:54:01;6.63;;;5.80;;
11348;SDS011;5729;43.570;27.826;2023-06-22T13:56:26;6.90;;;5.75;;
11348;SDS011;5729;43.570;27.826;2023-06-22T13:58:52;12.45;;;6.95;;
11348;SDS011;5729;43.570;27.826;2023-06-22T14:01:17;6.93;;;5.32;;
11348;SDS011;5729;43.570;27.826;2023-06-22T14:03:43;4.97;;;4.57;;
11348;SDS011;5729;43.570;27.826;2023-06-22T14:06:10;8.50;;;5.38;;
11348;SDS011;5729;43.570;27.826;2023-06-22T14:08:37;8.18;;;5.63;;
11348;SDS011;5729;43.570;27.826;2023-06-22T14:11:02;7.10;;;6.00;;
11348;SDS011;5729;43.570;27.826;2023-06-22T14:13:28;7.90;;;5.65;;
11348;SDS011;5729;43.570;27.826;2023-06-22T14:15:53;6.43;;;5.22;;
11348;SDS011;5729;43.570;27.826;2023-06-22T14:18:19;8.68;;;5.35;;
11348;SDS011;5729;43.570;27.826;2023-06-22T14:20:47;5.82;;;5.30;;
11348;SDS011;5729;43.570;27.826;2023-06-22T14:23:13;6.15;;;5.38;;
11348;SDS011;5729;43.570;27.826;2023-06-22T14:25:39;16.95;;;5.30;;
11348;SDS011;5729;43.570;27.826;2023-06-22T14:28:05;9.15;;;4.65;;
11348;SDS011;5729;43.570;27.826;2023-06-22T14:30:31;6.95;;;4.90;;
11348;SDS011;5729;43.570;27.826;2023-06-22T14:32:56;5.00;;;4.30;;
11348;SDS011;5729;43.570;27.826;2023-06-22T14:35:22;8.85;;;4.85;;
11348;SDS011;5729;43.570;27.826;2023-06-22T14:37:49;5.63;;;4.20;;
11348;SDS011;5729;43.570;27.826;2023-06-22T14:40:14;6.47;;;4.88;;
11348;SDS011;5729;43.570;27.826;2023-06-22T14:42:40;5.50;;;4.88;;
11348;SDS011;5729;43.570;27.826;2023-06-22T14:45:06;5.82;;;5.32;;
11348;SDS011;5729;43.570;27.826;2023-06-22T14:47:32;9.98;;;5.35;;
11348;SDS011;5729;43.570;27.826;2023-06-22T14:49:57;6.07;;;4.65;;
11348;SDS011;5729;43.570;27.826;2023-06-22T14:52:23;4.88;;;4.38;;
11348;SDS011;5729;43.570;27.826;2023-06-22T14:54:48;8.40;;;4.95;;
11348;SDS011;5729;43.570;27.826;2023-06-22T14:57:16;5.10;;;4.70;;
11348;SDS011;5729;43.570;27.826;2023-06-22T14:59:44;5.40;;;4.53;;
11348;SDS011;5729;43.570;27.826;2023-06-22T15:02:10;6.28;;;4.63;;
11348;SDS011;5729;43.570;27.826;2023-06-22T15:04:36;5.47;;;4.65;;
11348;SDS011;5729;43.570;27.826;2023-06-22T15:07:02;5.13;;;4.18;;
11348;SDS011;5729;43.570;27.826;2023-06-22T15:09:27;4.78;;;4.35;;
11348;SDS011;5729;43.570;27.826;2023-06-22T15:11:53;6.45;;;5.07;;
11348;SDS011;5729;43.570;27.826;2023-06-22T15:14:18;6.93;;;4.43;;
11348;SDS011;5729;43.570;27.826;2023-06-22T15:16:44;5.32;;;4.80;;
11348;SDS011;5729;43.570;27.826;2023-06-22T15:19:09;7.68;;;4.38;;
11348;SDS011;5729;43.570;27.826;2023-06-22T15:21:35;8.07;;;4.40;;
11348;SDS011;5729;43.570;27.826;2023-06-22T15:24:00;5.90;;;4.40;;
11348;SDS011;5729;43.570;27.826;2023-06-22T15:26:25;5.22;;;4.03;;
11348;SDS011;5729;43.570;27.826;2023-06-22T15:28:51;4.88;;;4.38;;
11348;SDS011;5729;43.570;27.826;2023-06-22T15:31:16;5.70;;;4.55;;
11348;SDS011;5729;43.570;27.826;2023-06-22T15:33:42;5.60;;;4.25;;
11348;SDS011;5729;43.570;27.826;2023-06-22T15:36:07;5.60;;;4.82;;
11348;SDS011;5729;43.570;27.826;2023-06-22T15:38:33;7.45;;;4.38;;
11348;SDS011;5729;43.570;27.826;2023-06-22T15:40:59;9.88;;;4.78;;
11348;SDS011;5729;43.570;27.826;2023-06-22T15:43:25;7.93;;;4.93;;
11348;SDS011;5729;43.570;27.826;2023-06-22T15:45:50;6.22;;;4.95;;
11348;SDS011;5729;43.570;27.826;2023-06-22T15:48:18;8.88;;;4.55;;
11348;SDS011;5729;43.570;27.826;2023-06-22T15:50:44;7.05;;;4.70;;
11348;SDS011;5729;43.570;27.826;2023-06-22T15:53:09;6.93;;;4.40;;
11348;SDS011;5729;43.570;27.826;2023-06-22T15:55:34;5.65;;;4.78;;
11348;SDS011;5729;43.570;27.826;2023-06-22T15:58:00;11.93;;;5.18;;
11348;SDS011;5729;43.570;27.826;2023-06-22T16:00:25;5.35;;;4.78;;
11348;SDS011;5729;43.570;27.826;2023-06-22T16:02:51;8.63;;;4.90;;
11348;SDS011;5729;43.570;27.826;2023-06-22T16:05:17;6.15;;;4.90;;
11348;SDS011;5729;43.570;27.826;2023-06-22T16:07:42;6.75;;;5.25;;
11348;SDS011;5729;43.570;27.826;2023-06-22T16:10:08;16.13;;;5.38;;
11348;SDS011;5729;43.570;27.826;2023-06-22T16:12:34;5.80;;;5.00;;
11348;SDS011;5729;43.570;27.826;2023-06-22T16:15:01;5.68;;;4.95;;
11348;SDS011;5729;43.570;27.826;2023-06-22T16:17:29;6.20;;;5.03;;
11348;SDS011;5729;43.570;27.826;2023-06-22T16:19:55;5.55;;;5.03;;
11348;SDS011;5729;43.570;27.826;2023-06-22T16:22:22;6.80;;;5.32;;
11348;SDS011;5729;43.570;27.826;2023-06-22T16:24:48;9.35;;;5.10;;
11348;SDS011;5729;43.570;27.826;2023-06-22T16:27:14;7.43;;;4.97;;
11348;SDS011;5729;43.570;27.826;2023-06-22T16:29:39;12.20;;;6.05;;
11348;SDS011;5729;43.570;27.826;2023-06-22T16:32:05;6.68;;;5.13;;
11348;SDS011;5729;43.570;27.826;2023-06-22T16:34:32;9.20;;;4.97;;
11348;SDS011;5729;43.570;27.826;2023-06-22T16:36:57;7.75;;;5.70;;
11348;SDS011;5729;43.570;27.826;2023-06-22T16:39:23;8.20;;;5.57;;
11348;SDS011;5729;43.570;27.826;2023-06-22T16:41:48;8.25;;;5.15;;
11348;SDS011;5729;43.570;27.826;2023-06-22T16:44:15;7.60;;;5.28;;
11348;SDS011;5729;43.570;27.826;2023-06-22T16:46:41;6.60;;;5.05;;
11348;SDS011;5729;43.570;27.826;2023-06-22T16:49:06;7.35;;;5.57;;
11348;SDS011;5729;43.570;27.826;2023-06-22T16:51:32;7.60;;;5.50;;
11348;SDS011;5729;43.570;27.826;2023-06-22T16:53:57;6.93;;;5.20;;
11348;SDS011;5729;43.570;27.826;2023-06-22T16:56:27;6.97;;;5.10;;
11348;SDS011;5729;43.570;27.826;2023-06-22T16:58:53;8.70;;;5.68;;
11348;SDS011;5729;43.570;27.826;2023-06-22T17:01:20;5.88;;;5.00;;
11348;SDS011;5729;43.570;27.826;2023-06-22T17:03:50;17.55;;;5.53;;
11348;SDS011;5729;43.570;27.826;2023-06-22T17:06:31;9.27;;;6.30;;
11348;SDS011;5729;43.570;27.826;2023-06-22T17:08:57;6.05;;;5.45;;
11348;SDS011;5729;43.570;27.826;2023-06-22T17:11:25;6.68;;;5.60;;
11348;SDS011;5729;43.570;27.826;2023-06-22T17:13:53;14.27;;;5.53;;
11348;SDS011;5729;43.570;27.826;2023-06-22T17:16:19;10.27;;;5.68;;
11348;SDS011;5729;43.570;27.826;2023-06-22T17:18:45;9.00;;;5.35;;
11348;SDS011;5729;43.570;27.826;2023-06-22T17:21:11;9.23;;;5.28;;
11348;SDS011;5729;43.570;27.826;2023-06-22T17:23:37;6.28;;;5.55;;
11348;SDS011;5729;43.570;27.826;2023-06-22T17:26:03;6.78;;;5.78;;
11348;SDS011;5729;43.570;27.826;2023-06-22T17:31:25;7.65;;;5.53;;
11348;SDS011;5729;43.570;27.826;2023-06-22T17:36:41;13.00;;;6.65;;
11348;SDS011;5729;43.570;27.826;2023-06-22T17:39:10;6.30;;;5.60;;
11348;SDS011;5729;43.570;27.826;2023-06-22T17:41:37;10.95;;;6.18;;
11348;SDS011;5729;43.570;27.826;2023-06-22T17:44:04;6.43;;;5.82;;
11348;SDS011;5729;43.570;27.826;2023-06-22T17:46:34;6.95;;;6.18;;
11348;SDS011;5729;43.570;27.826;2023-06-22T17:49:00;11.43;;;5.70;;
11348;SDS011;5729;43.570;27.826;2023-06-22T17:51:26;6.80;;;6.10;;
11348;SDS011;5729;43.570;27.826;2023-06-22T17:53:51;9.85;;;5.57;;
11348;SDS011;5729;43.570;27.826;2023-06-22T17:56:17;7.28;;;5.90;;
11348;SDS011;5729;43.570;27.826;2023-06-22T17:58:53;6.35;;;5.72;;
11348;SDS011;5729;43.570;27.826;2023-06-22T18:04:00;7.47;;;6.20;;
11348;SDS011;5729;43.570;27.826;2023-06-22T18:09:08;13.52;;;6.00;;
11348;SDS011;5729;43.570;27.826;2023-06-22T18:11:35;6.72;;;6.03;;
11348;SDS011;5729;43.570;27.826;2023-06-22T18:14:05;6.85;;;6.15;;
11348;SDS011;5729;43.570;27.826;2023-06-22T18:16:32;8.88;;;6.65;;
11348;SDS011;5729;43.570;27.826;2023-06-22T18:19:00;10.02;;;6.43;;
11348;SDS011;5729;43.570;27.826;2023-06-22T18:21:27;11.07;;;6.20;;
11348;SDS011;5729;43.570;27.826;2023-06-22T18:23:54;8.85;;;6.10;;
11348;SDS011;5729;43.570;27.826;2023-06-22T18:26:20;6.70;;;6.10;;
11348;SDS011;5729;43.570;27.826;2023-06-22T18:28:51;11.07;;;6.35;;
11348;SDS011;5729;43.570;27.826;2023-06-22T18:31:18;7.05;;;6.35;;
11348;SDS011;5729;43.570;27.826;2023-06-22T18:33:45;11.13;;;6.85;;
11348;SDS011;5729;43.570;27.826;2023-06-22T18:36:14;7.85;;;6.85;;
11348;SDS011;5729;43.570;27.826;2023-06-22T18:38:45;8.10;;;6.53;;
11348;SDS011;5729;43.570;27.826;2023-06-22T18:41:24;8.75;;;6.40;;
11348;SDS011;5729;43.570;27.826;2023-06-22T18:43:58;8.75;;;6.03;;
11348;SDS011;5729;43.570;27.826;2023-06-22T18:46:42;8.30;;;6.72;;
11348;SDS011;5729;43.570;27.826;2023-06-22T18:49:10;9.35;;;6.88;;
11348;SDS011;5729;43.570;27.826;2023-06-22T18:51:51;8.57;;;6.75;;
11348;SDS011;5729;43.570;27.826;2023-06-22T18:54:19;7.38;;;6.60;;
11348;SDS011;5729;43.570;27.826;2023-06-22T18:59:58;7.07;;;6.38;;
11348;SDS011;5729;43.570;27.826;2023-06-22T19:05:41;8.27;;;7.20;;
11348;SDS011;5729;43.570;27.826;2023-06-22T19:08:08;12.57;;;7.35;;
11348;SDS011;5729;43.570;27.826;2023-06-22T19:10:39;7.03;;;6.32;;
11348;SDS011;5729;43.570;27.826;2023-06-22T19:15:45;8.80;;;6.63;;
11348;SDS011;5729;43.570;27.826;2023-06-22T19:18:19;7.75;;;6.63;;
11348;SDS011;5729;43.570;27.826;2023-06-22T19:21:11;8.10;;;7.15;;
11348;SDS011;5729;43.570;27.826;2023-06-22T19:23:44;7.65;;;6.32;;
11348;SDS011;5729;43.570;27.826;2023-06-22T19:28:46;8.90;;;7.40;;
11348;SDS011;5729;43.570;27.826;2023-06-22T19:31:13;7.82;;;6.97;;
11348;SDS011;5729;43.570;27.826;2023-06-22T19:33:39;7.47;;;6.78;;
11348;SDS011;5729;43.570;27.826;2023-06-22T19:36:05;10.13;;;7.13;;
11348;SDS011;5729;43.570;27.826;2023-06-22T19:38:31;7.78;;;6.97;;
11348;SDS011;5729;43.570;27.826;2023-06-22T19:40:58;9.32;;;6.68;;
11348;SDS011;5729;43.570;27.826;2023-06-22T19:43:30;11.80;;;7.53;;
11348;SDS011;5729;43.570;27.826;2023-06-22T19:45:56;7.78;;;7.03;;
11348;SDS011;5729;43.570;27.826;2023-06-22T19:48:25;9.77;;;6.88;;
11348;SDS011;5729;43.570;27.826;2023-06-22T19:50:55;9.13;;;6.90;;
11348;SDS011;5729;43.570;27.826;2023-06-22T19:53:27;9.55;;;7.38;;
11348;SDS011;5729;43.570;27.826;2023-06-22T19:55:53;7.55;;;6.82;;
11348;SDS011;5729;43.570;27.826;2023-06-22T19:58:19;8.32;;;7.35;;
11348;SDS011;5729;43.570;27.826;2023-06-22T20:00:46;8.18;;;7.30;;
11348;SDS011;5729;43.570;27.826;2023-06-22T20:03:31;8.05;;;7.22;;
11348;SDS011;5729;43.570;27.826;2023-06-22T20:06:08;9.50;;;7.55;;
11348;SDS011;5729;43.570;27.826;2023-06-22T20:11:12;8.65;;;7.75;;
11348;SDS011;5729;43.570;27.826;2023-06-22T20:13:47;7.38;;;6.68;;
11348;SDS011;5729;43.570;27.826;2023-06-22T20:16:14;7.82;;;7.13;;
11348;SDS011;5729;43.570;27.826;2023-06-22T20:18:40;8.98;;;7.30;;
11348;SDS011;5729;43.570;27.826;2023-06-22T20:21:10;8.07;;;6.70;;
11348;SDS011;5729;43.570;27.826;2023-06-22T20:23:36;9.65;;;7.10;;
11348;SDS011;5729;43.570;27.826;2023-06-22T20:26:02;8.57;;;7.68;;
11348;SDS011;5729;43.570;27.826;2023-06-22T20:28:27;7.72;;;6.90;;
11348;SDS011;5729;43.570;27.826;2023-06-22T20:31:08;10.30;;;7.07;;
11348;SDS011;5729;43.570;27.826;2023-06-22T20:33:35;9.00;;;6.90;;
11348;SDS011;5729;43.570;27.826;2023-06-22T20:36:04;12.93;;;7.00;;
11348;SDS011;5729;43.570;27.826;2023-06-22T20:38:31;8.65;;;7.32;;
11348;SDS011;5729;43.570;27.826;2023-06-22T20:40:58;7.88;;;7.05;;
11348;SDS011;5729;43.570;27.826;2023-06-22T20:43:24;12.40;;;7.35;;
11348;SDS011;5729;43.570;27.826;2023-06-22T20:45:53;9.23;;;6.90;;
11348;SDS011;5729;43.570;27.826;2023-06-22T20:48:19;9.23;;;6.93;;
11348;SDS011;5729;43.570;27.826;2023-06-22T20:50:46;10.00;;;7.28;;
11348;SDS011;5729;43.570;27.826;2023-06-22T20:53:12;11.63;;;7.30;;
11348;SDS011;5729;43.570;27.826;2023-06-22T20:55:38;8.98;;;7.18;;
11348;SDS011;5729;43.570;27.826;2023-06-22T20:58:07;7.80;;;7.10;;
11348;SDS011;5729;43.570;27.826;2023-06-22T21:00:34;11.77;;;7.65;;
11348;SDS011;5729;43.570;27.826;2023-06-22T21:03:02;8.60;;;7.70;;
11348;SDS011;5729;43.570;27.826;2023-06-22T21:05:28;8.48;;;7.63;;
11348;SDS011;5729;43.570;27.826;2023-06-22T21:07:55;10.02;;;7.10;;
11348;SDS011;5729;43.570;27.826;2023-06-22T21:10:21;10.40;;;8.00;;
11348;SDS011;5729;43.570;27.826;2023-06-22T21:12:48;9.50;;;7.93;;